createdAt,value
2023-04-30T00:00:32.186Z,62.48
2023-04-30T00:02:33.822Z,63.61
2023-04-30T00:04:35.441Z,64.26
2023-04-30T00:06:37.118Z,64.45
2023-04-30T00:08:38.705Z,65.00
2023-04-30T00:10:40.313Z,64.50
2023-04-30T00:12:41.996Z,64.28
2023-04-30T00:14:43.596Z,64.06
2023-04-30T00:16:45.238Z,63.20
2023-04-30T00:18:46.850Z,62.28
2023-04-30T00:20:48.448Z,61.83
2023-04-30T00:22:50.036Z,61.37
2023-04-30T00:24:51.989Z,60.84
2023-04-30T00:26:53.611Z,61.03
2023-04-30T00:28:55.366Z,60.77
2023-04-30T00:30:57.116Z,60.91
2023-04-30T00:32:58.715Z,60.86
2023-04-30T00:35:00.280Z,60.82
2023-04-30T00:37:01.898Z,60.68
2023-04-30T00:39:04.054Z,60.41
2023-04-30T00:41:05.908Z,60.31
2023-04-30T00:43:07.458Z,60.15
2023-04-30T00:45:09.487Z,60.56
2023-04-30T00:47:11.134Z,60.34
2023-04-30T00:49:12.856Z,60.50
2023-04-30T00:51:14.562Z,60.42
2023-04-30T00:53:17.016Z,60.43
2023-04-30T00:55:18.793Z,60.45
2023-04-30T00:57:20.745Z,60.53
2023-04-30T00:59:22.752Z,60.47
2023-04-30T01:01:25.886Z,60.71
2023-04-30T01:03:28.886Z,60.63
2023-04-30T01:05:30.930Z,60.77
2023-04-30T01:07:33.059Z,61.53
2023-04-30T01:09:34.731Z,62.03
2023-04-30T01:11:47.914Z,62.23
2023-04-30T01:14:08.197Z,62.69
2023-04-30T01:16:16.746Z,62.80
2023-04-30T01:19:12.001Z,62.50
2023-04-30T01:21:15.671Z,62.52
2023-04-30T01:23:32.170Z,62.64
2023-04-30T01:25:39.733Z,62.51
2023-04-30T01:28:07.133Z,62.66
2023-04-30T01:30:09.251Z,62.81
2023-04-30T01:32:11.524Z,63.04
2023-04-30T01:34:13.098Z,62.97
2023-04-30T01:36:52.562Z,62.75
2023-04-30T01:39:07.131Z,63.23
2023-04-30T01:41:41.526Z,63.25
2023-04-30T01:43:50.539Z,62.80
2023-04-30T01:46:07.398Z,62.94
2023-04-30T01:48:21.190Z,63.06
2023-04-30T01:50:39.851Z,63.14
2023-04-30T01:52:50.955Z,63.40
2023-04-30T01:54:56.645Z,63.09
2023-04-30T01:57:06.936Z,63.11
2023-04-30T01:59:09.233Z,62.73
2023-04-30T02:01:28.644Z,62.51
2023-04-30T02:03:30.530Z,62.54
2023-04-30T02:05:32.272Z,62.60
2023-04-30T02:07:39.641Z,62.77
2023-04-30T02:09:41.279Z,63.19
2023-04-30T02:11:42.872Z,63.05
2023-04-30T02:13:44.469Z,62.79
2023-04-30T02:15:46.080Z,62.96
2023-04-30T02:17:48.059Z,62.67
2023-04-30T02:19:49.619Z,62.58
2023-04-30T02:21:51.328Z,62.71
2023-04-30T02:23:53.222Z,62.81
2023-04-30T02:25:54.819Z,62.69
2023-04-30T02:27:56.344Z,62.79
2023-04-30T02:29:58.542Z,62.69
2023-04-30T02:32:00.874Z,62.46
2023-04-30T02:34:02.443Z,62.71
2023-04-30T02:36:04.426Z,62.66
2023-04-30T02:38:05.972Z,62.44
2023-04-30T02:40:08.250Z,62.75
2023-04-30T02:42:10.054Z,62.51
2023-04-30T02:44:12.205Z,62.32
2023-04-30T02:46:13.836Z,62.54
2023-04-30T02:48:15.931Z,62.50
2023-04-30T02:50:17.531Z,62.48
2023-04-30T02:52:19.135Z,62.56
2023-04-30T02:54:21.076Z,62.62
2023-04-30T02:56:22.740Z,62.93
2023-04-30T02:58:24.305Z,63.02
2023-04-30T03:00:26.493Z,62.80
2023-04-30T03:02:28.095Z,62.81
2023-04-30T03:04:29.702Z,63.16
2023-04-30T03:06:32.221Z,63.08
2023-04-30T03:08:33.864Z,63.32
2023-04-30T03:10:35.512Z,63.32
2023-04-30T03:12:37.214Z,63.14
2023-04-30T03:14:38.801Z,63.06
2023-04-30T03:16:41.553Z,62.91
2023-04-30T03:18:43.626Z,63.16
2023-04-30T03:20:45.302Z,63.15
2023-04-30T03:22:46.920Z,62.92
2023-04-30T03:24:48.469Z,62.74
2023-04-30T03:26:50.008Z,62.85
2023-04-30T03:28:51.608Z,62.64
2023-04-30T03:30:53.199Z,62.77
2023-04-30T03:32:54.797Z,62.97
2023-04-30T03:34:56.499Z,63.08
2023-04-30T03:36:58.538Z,62.64
2023-04-30T03:39:00.293Z,62.47
2023-04-30T03:41:01.873Z,62.65
2023-04-30T03:43:03.491Z,62.39
2023-04-30T03:45:05.477Z,62.24
2023-04-30T03:47:07.140Z,62.66
2023-04-30T03:49:08.850Z,62.50
2023-04-30T03:51:10.920Z,62.51
2023-04-30T03:53:12.512Z,62.62
2023-04-30T03:55:14.097Z,62.28
2023-04-30T03:57:15.877Z,61.96
2023-04-30T03:59:17.869Z,62.08
2023-04-30T04:01:19.497Z,62.24
2023-04-30T04:03:21.238Z,61.96
2023-04-30T04:05:22.842Z,61.98
2023-04-30T04:07:24.483Z,61.74
2023-04-30T04:09:26.261Z,62.40
2023-04-30T04:11:27.914Z,62.71
2023-04-30T04:13:29.499Z,62.33
2023-04-30T04:15:31.284Z,62.40
2023-04-30T04:17:33.048Z,62.64
2023-04-30T04:19:34.722Z,62.27
2023-04-30T04:21:36.874Z,62.47
2023-04-30T04:23:38.550Z,62.55
2023-04-30T04:25:41.725Z,62.52
2023-04-30T04:27:43.263Z,62.32
2023-04-30T04:29:44.824Z,62.67
2023-04-30T04:31:49.093Z,62.51
2023-04-30T04:33:58.142Z,63.07
2023-04-30T04:35:59.942Z,63.51
2023-04-30T04:38:01.562Z,62.86
2023-04-30T04:40:05.072Z,62.78
2023-04-30T04:42:06.715Z,62.67
2023-04-30T04:44:08.438Z,63.45
2023-04-30T04:46:12.971Z,65.04
2023-04-30T04:48:15.948Z,65.55
2023-04-30T04:50:18.198Z,65.10
2023-04-30T04:52:19.733Z,64.56
2023-04-30T04:54:21.395Z,63.87
2023-04-30T04:56:22.998Z,63.48
2023-04-30T04:58:24.664Z,63.45
2023-04-30T05:00:26.258Z,63.42
2023-04-30T05:02:27.964Z,63.06
2023-04-30T05:04:30.503Z,62.54
2023-04-30T05:06:32.256Z,62.10
2023-04-30T05:08:33.956Z,62.33
2023-04-30T05:10:35.578Z,62.72
2023-04-30T05:12:37.186Z,62.45
2023-04-30T05:14:38.837Z,62.06
2023-04-30T05:16:40.634Z,62.49
2023-04-30T05:18:42.282Z,62.72
2023-04-30T05:20:43.969Z,62.84
2023-04-30T05:22:45.543Z,62.92
2023-04-30T05:24:47.166Z,62.79
2023-04-30T05:26:48.813Z,62.84
2023-04-30T05:28:52.455Z,63.04
2023-04-30T05:30:54.194Z,63.21
2023-04-30T05:32:56.948Z,63.09
2023-04-30T05:34:58.585Z,62.71
2023-04-30T05:37:01.657Z,62.47
2023-04-30T05:39:03.308Z,62.54
2023-04-30T05:41:05.149Z,62.29
2023-04-30T05:43:06.811Z,62.23
2023-04-30T05:45:08.793Z,62.11
2023-04-30T05:47:10.571Z,62.40
2023-04-30T05:49:12.177Z,61.93
2023-04-30T05:51:14.051Z,60.95
2023-04-30T05:53:15.702Z,59.88
2023-04-30T05:55:17.397Z,59.46
2023-04-30T05:57:19.039Z,59.47
2023-04-30T05:59:20.623Z,59.23
2023-04-30T06:01:23.336Z,58.68
2023-04-30T06:03:25.160Z,58.75
2023-04-30T06:05:27.075Z,58.14
2023-04-30T06:07:28.814Z,58.50
2023-04-30T06:09:30.478Z,58.63
2023-04-30T06:11:32.209Z,58.41
2023-04-30T06:13:33.913Z,58.70
2023-04-30T06:15:35.696Z,58.56
2023-04-30T06:17:37.568Z,58.91
2023-04-30T06:19:39.301Z,59.41
2023-04-30T06:21:41.001Z,59.56
2023-04-30T06:23:42.562Z,59.80
2023-04-30T06:25:44.194Z,59.67
2023-04-30T06:27:46.201Z,58.85
2023-04-30T06:29:47.817Z,58.85
2023-04-30T06:31:49.508Z,58.73
2023-04-30T06:33:51.254Z,59.01
2023-04-30T06:35:55.464Z,59.47
2023-04-30T06:37:57.116Z,59.51
2023-04-30T06:39:58.695Z,59.31
2023-04-30T06:42:00.418Z,59.08
2023-04-30T06:44:01.992Z,59.43
2023-04-30T06:46:04.069Z,59.33
2023-04-30T06:48:05.792Z,58.80
2023-04-30T06:50:07.722Z,58.32
2023-04-30T06:52:09.657Z,56.75
2023-04-30T06:54:11.287Z,56.92
2023-04-30T06:56:13.257Z,55.90
2023-04-30T06:58:15.026Z,55.77
2023-04-30T07:00:16.858Z,55.12
2023-04-30T07:02:21.210Z,54.80
2023-04-30T07:04:24.661Z,55.25
2023-04-30T07:06:26.847Z,55.46
2023-04-30T07:08:28.488Z,55.44
2023-04-30T07:10:31.266Z,55.06
2023-04-30T07:12:32.884Z,55.06
2023-04-30T07:14:34.477Z,54.92
2023-04-30T07:16:36.110Z,55.43
2023-04-30T07:18:38.098Z,55.68
2023-04-30T07:20:39.776Z,55.81
2023-04-30T07:22:46.197Z,55.55
2023-04-30T07:24:47.863Z,55.08
2023-04-30T07:26:49.457Z,55.08
2023-04-30T07:28:51.136Z,54.81
2023-04-30T07:30:53.221Z,54.88
2023-04-30T07:32:54.918Z,54.93
2023-04-30T07:34:56.609Z,54.81
2023-04-30T07:36:58.233Z,54.71
2023-04-30T07:38:59.893Z,54.53
2023-04-30T07:41:02.279Z,54.92
2023-04-30T07:43:05.213Z,55.23
2023-04-30T07:45:07.284Z,54.90
2023-04-30T07:47:10.032Z,55.09
2023-04-30T07:49:11.676Z,54.81
2023-04-30T07:51:13.236Z,55.97
2023-04-30T07:53:14.831Z,55.05
2023-04-30T07:55:16.680Z,55.15
2023-04-30T07:57:18.262Z,54.89
2023-04-30T07:59:21.438Z,54.29
2023-04-30T08:01:23.091Z,53.74
2023-04-30T08:03:24.769Z,53.81
2023-04-30T08:05:27.306Z,53.26
2023-04-30T08:07:28.987Z,52.78
2023-04-30T08:09:31.370Z,52.80
2023-04-30T08:11:33.000Z,52.52
2023-04-30T08:13:34.722Z,52.75
2023-04-30T08:15:37.799Z,52.21
2023-04-30T08:17:39.388Z,52.54
2023-04-30T08:19:41.061Z,52.31
2023-04-30T08:21:42.680Z,52.37
2023-04-30T08:23:44.437Z,52.16
2023-04-30T08:25:46.132Z,51.98
2023-04-30T08:27:47.687Z,51.38
2023-04-30T08:29:49.372Z,51.45
2023-04-30T08:31:51.061Z,51.56
2023-04-30T08:33:52.720Z,50.94
2023-04-30T08:35:54.580Z,50.66
2023-04-30T08:37:56.232Z,49.98
2023-04-30T08:39:58.349Z,49.50
2023-04-30T08:42:03.732Z,49.50
2023-04-30T08:44:08.216Z,49.29
2023-04-30T08:46:13.444Z,49.08
2023-04-30T08:48:16.641Z,48.64
2023-04-30T08:50:18.471Z,48.37
2023-04-30T08:52:20.599Z,48.30
2023-04-30T08:54:23.138Z,47.66
2023-04-30T08:56:25.710Z,47.86
2023-04-30T08:58:27.330Z,48.92
2023-04-30T09:00:28.994Z,47.86
2023-04-30T09:02:32.987Z,47.44
2023-04-30T09:04:34.631Z,46.50
2023-04-30T09:06:36.274Z,46.14
2023-04-30T09:08:50.752Z,45.56
2023-04-30T09:10:52.394Z,44.78
2023-04-30T09:13:07.700Z,45.12
2023-04-30T09:15:09.814Z,46.00
2023-04-30T09:17:22.153Z,45.50
2023-04-30T09:19:25.445Z,45.28
2023-04-30T09:21:35.146Z,44.76
2023-04-30T09:23:36.824Z,45.01
2023-04-30T09:25:42.625Z,43.51
2023-04-30T09:27:45.311Z,43.96
2023-04-30T09:29:47.173Z,44.13
2023-04-30T09:31:48.893Z,43.29
2023-04-30T09:33:51.053Z,42.41
2023-04-30T09:35:52.686Z,42.32
2023-04-30T09:37:54.337Z,42.30
2023-04-30T09:39:57.140Z,41.86
2023-04-30T09:42:11.558Z,42.44
2023-04-30T09:44:29.000Z,42.70
2023-04-30T09:46:32.421Z,41.95
2023-04-30T09:48:34.129Z,42.07
2023-04-30T09:50:41.887Z,42.52
2023-04-30T09:52:54.062Z,42.57
2023-04-30T09:54:55.662Z,41.08
2023-04-30T09:56:59.351Z,41.58
2023-04-30T09:59:00.808Z,40.64
2023-04-30T10:01:03.581Z,40.71
2023-04-30T10:03:12.890Z,41.98
2023-04-30T10:05:14.651Z,42.54
2023-04-30T10:07:22.228Z,42.76
2023-04-30T10:09:30.896Z,43.33
2023-04-30T10:11:34.414Z,43.44
2023-04-30T10:13:44.835Z,43.93
2023-04-30T10:15:51.927Z,43.66
2023-04-30T10:17:59.851Z,44.00
2023-04-30T10:20:05.876Z,44.40
2023-04-30T10:22:08.076Z,44.07
2023-04-30T10:24:10.735Z,45.71
2023-04-30T10:26:12.898Z,47.40
2023-04-30T10:28:14.722Z,49.44
2023-04-30T10:30:16.473Z,52.32
2023-04-30T10:32:18.556Z,56.65
2023-04-30T10:34:33.505Z,58.45
2023-04-30T10:36:44.915Z,62.02
2023-04-30T10:38:48.417Z,61.27
2023-04-30T10:40:50.251Z,60.05
2023-04-30T10:42:54.724Z,59.52
2023-04-30T10:44:56.936Z,60.79
2023-04-30T10:47:02.577Z,58.83
2023-04-30T10:49:04.223Z,59.03
2023-04-30T10:51:06.291Z,61.80
2023-04-30T10:53:08.505Z,59.01
2023-04-30T10:55:10.705Z,57.00
2023-04-30T10:57:17.793Z,55.91
2023-04-30T10:59:20.158Z,55.17
2023-04-30T11:01:22.231Z,51.66
2023-04-30T11:03:25.152Z,52.61
2023-04-30T11:05:38.876Z,53.03
2023-04-30T11:07:50.582Z,52.53
2023-04-30T11:09:57.549Z,51.44
2023-04-30T11:12:03.987Z,49.50
2023-04-30T11:14:05.728Z,48.60
2023-04-30T11:16:07.480Z,48.10
2023-04-30T11:18:09.871Z,46.69
2023-04-30T11:20:19.267Z,45.80
2023-04-30T11:22:24.720Z,46.26
2023-04-30T11:24:51.993Z,44.41
2023-04-30T11:27:05.676Z,46.08
2023-04-30T11:29:07.585Z,46.33
2023-04-30T11:31:09.288Z,46.74
2023-04-30T11:33:11.932Z,44.23
2023-04-30T11:35:15.243Z,43.44
2023-04-30T11:37:22.005Z,42.87
2023-04-30T11:39:24.782Z,43.87
2023-04-30T11:41:27.486Z,44.71
2023-04-30T11:43:33.611Z,45.05
2023-04-30T11:45:35.459Z,44.96
2023-04-30T11:47:43.032Z,45.76
2023-04-30T11:49:44.713Z,45.26
2023-04-30T11:51:49.769Z,47.36
2023-04-30T11:53:53.475Z,48.48
2023-04-30T11:55:56.056Z,49.14
2023-04-30T11:57:59.469Z,48.90
2023-04-30T12:00:10.055Z,48.51
2023-04-30T12:02:16.095Z,46.33
2023-04-30T12:04:19.331Z,46.89
2023-04-30T12:06:25.303Z,48.06
2023-04-30T12:08:27.225Z,49.17
2023-04-30T12:10:28.848Z,50.49
2023-04-30T12:12:31.094Z,50.29
2023-04-30T12:14:34.919Z,50.23
2023-04-30T12:16:49.546Z,50.13
2023-04-30T12:18:52.826Z,50.25
2023-04-30T12:20:55.032Z,50.84
2023-04-30T12:22:57.837Z,51.26
2023-04-30T12:25:00.297Z,52.26
2023-04-30T12:27:02.448Z,52.73
2023-04-30T12:29:05.479Z,53.48
2023-04-30T12:31:07.325Z,54.08
2023-04-30T12:33:10.750Z,54.17
2023-04-30T12:35:17.056Z,54.68
2023-04-30T12:37:18.686Z,54.05
2023-04-30T12:39:20.418Z,53.71
2023-04-30T12:41:22.926Z,53.95
2023-04-30T12:43:24.488Z,53.78
2023-04-30T12:45:55.986Z,53.66
2023-04-30T12:47:57.702Z,54.69
2023-04-30T12:49:59.391Z,55.13
2023-04-30T12:52:02.751Z,55.27
2023-04-30T12:54:04.421Z,54.66
2023-04-30T12:56:16.011Z,54.31
2023-04-30T12:58:17.729Z,54.38
2023-04-30T13:00:19.350Z,53.89
2023-04-30T13:02:24.626Z,52.46
2023-04-30T13:04:26.952Z,51.96
2023-04-30T13:06:29.303Z,52.11
2023-04-30T13:08:32.612Z,51.75
2023-04-30T13:10:36.950Z,51.81
2023-04-30T13:12:38.630Z,51.19
2023-04-30T13:14:40.215Z,51.55
2023-04-30T13:16:42.017Z,51.52
2023-04-30T13:18:44.112Z,51.31
2023-04-30T13:20:45.837Z,51.20
2023-04-30T13:22:47.746Z,50.86
2023-04-30T13:24:49.572Z,50.95
2023-04-30T13:26:51.194Z,51.20
2023-04-30T13:28:52.831Z,51.38
2023-04-30T13:30:54.424Z,51.36
2023-04-30T13:32:56.207Z,51.78
2023-04-30T13:34:58.507Z,51.86
2023-04-30T13:37:00.406Z,51.50
2023-04-30T13:39:01.960Z,50.86
2023-04-30T13:41:03.649Z,50.87
2023-04-30T13:43:05.287Z,50.47
2023-04-30T13:45:07.564Z,49.66
2023-04-30T13:47:10.344Z,49.50
2023-04-30T13:49:12.014Z,49.63
2023-04-30T13:51:13.937Z,50.07
2023-04-30T13:53:16.174Z,49.62
2023-04-30T13:55:17.900Z,50.24
2023-04-30T13:57:19.499Z,49.55
2023-04-30T13:59:21.218Z,49.26
2023-04-30T14:01:22.946Z,46.89
2023-04-30T14:03:24.678Z,47.16
2023-04-30T14:05:26.893Z,47.53
2023-04-30T14:07:28.453Z,46.79
2023-04-30T14:09:30.395Z,46.50
2023-04-30T14:11:32.436Z,47.15
2023-04-30T14:13:34.298Z,47.14
2023-04-30T14:15:35.993Z,46.28
2023-04-30T14:17:37.837Z,45.66
2023-04-30T14:19:39.619Z,46.21
2023-04-30T14:21:41.213Z,45.72
2023-04-30T14:23:46.023Z,46.35
2023-04-30T14:25:47.756Z,46.18
2023-04-30T14:27:49.426Z,45.43
2023-04-30T14:29:51.544Z,44.88
2023-04-30T14:31:53.217Z,44.89
2023-04-30T14:33:55.319Z,45.08
2023-04-30T14:35:56.945Z,44.64
2023-04-30T14:37:58.586Z,44.28
2023-04-30T14:40:01.988Z,44.36
2023-04-30T14:42:04.140Z,43.70
2023-04-30T14:44:05.833Z,43.38
2023-04-30T14:46:07.594Z,42.27
2023-04-30T14:48:09.634Z,41.51
2023-04-30T14:50:11.250Z,40.58
2023-04-30T14:52:13.831Z,40.02
2023-04-30T14:54:15.637Z,40.02
2023-04-30T14:56:17.407Z,39.06
2023-04-30T14:58:20.225Z,39.14
2023-04-30T15:00:22.033Z,38.04
2023-04-30T15:02:23.725Z,39.92
2023-04-30T15:04:25.354Z,40.27
2023-04-30T15:06:27.567Z,39.37
2023-04-30T15:08:29.198Z,39.48
2023-04-30T15:10:30.771Z,40.77
2023-04-30T15:12:32.709Z,41.16
2023-04-30T15:14:34.280Z,41.98
2023-04-30T15:16:35.869Z,42.17
2023-04-30T15:18:38.543Z,42.38
2023-04-30T15:20:40.423Z,42.74
2023-04-30T15:22:42.331Z,42.67
2023-04-30T15:24:44.322Z,45.24
2023-04-30T15:26:46.053Z,46.95
2023-04-30T15:28:47.668Z,48.78
2023-04-30T15:30:49.367Z,48.82
2023-04-30T15:32:51.053Z,48.14
2023-04-30T15:34:52.990Z,47.45
2023-04-30T15:36:54.647Z,47.81
2023-04-30T15:38:56.252Z,47.58
2023-04-30T15:40:57.889Z,47.41
2023-04-30T15:42:59.508Z,47.19
2023-04-30T15:45:01.222Z,46.86
2023-04-30T15:47:03.224Z,45.76
2023-04-30T15:49:05.035Z,45.33
2023-04-30T15:51:06.721Z,44.94
2023-04-30T15:53:09.178Z,44.80
2023-04-30T15:55:10.791Z,43.99
2023-04-30T15:57:13.145Z,43.91
2023-04-30T15:59:17.729Z,44.27
2023-04-30T16:01:23.448Z,43.80
2023-04-30T16:03:25.322Z,44.00
2023-04-30T16:05:26.970Z,44.17
2023-04-30T16:07:28.642Z,43.85
2023-04-30T16:09:31.329Z,44.04
2023-04-30T16:11:33.823Z,44.38
2023-04-30T16:13:35.553Z,45.46
2023-04-30T16:15:37.200Z,45.81
2023-04-30T16:17:39.122Z,46.49
2023-04-30T16:19:41.203Z,46.78
2023-04-30T16:21:43.585Z,47.42
2023-04-30T16:23:47.314Z,47.22
2023-04-30T16:25:48.892Z,46.82
2023-04-30T16:27:51.042Z,46.54
2023-04-30T16:29:53.004Z,46.02
2023-04-30T16:31:54.968Z,45.11
2023-04-30T16:33:56.606Z,44.33
2023-04-30T16:35:58.271Z,43.96
2023-04-30T16:37:59.930Z,42.74
2023-04-30T16:40:01.678Z,42.17
2023-04-30T16:42:03.392Z,41.52
2023-04-30T16:44:05.729Z,41.25
2023-04-30T16:46:07.696Z,41.17
2023-04-30T16:48:09.397Z,40.78
2023-04-30T16:50:11.278Z,40.80
2023-04-30T16:52:12.939Z,40.80
2023-04-30T16:54:14.539Z,40.65
2023-04-30T16:56:16.198Z,40.61
2023-04-30T16:58:17.814Z,40.87
2023-04-30T17:00:19.601Z,41.30
2023-04-30T17:02:21.379Z,41.53
2023-04-30T17:04:23.049Z,42.08
2023-04-30T17:06:24.738Z,42.31
2023-04-30T17:08:26.574Z,42.50
2023-04-30T17:10:30.136Z,42.91
2023-04-30T17:12:32.374Z,42.97
2023-04-30T17:14:34.097Z,43.12
2023-04-30T17:16:35.789Z,43.45
2023-04-30T17:18:37.495Z,43.88
2023-04-30T17:20:39.349Z,44.44
2023-04-30T17:22:41.015Z,44.88
2023-04-30T17:24:42.786Z,45.66
2023-04-30T17:26:44.422Z,46.24
2023-04-30T17:28:46.094Z,47.24
2023-04-30T17:30:47.722Z,47.42
2023-04-30T17:32:49.405Z,47.86
2023-04-30T17:34:51.682Z,47.91
2023-04-30T17:36:53.276Z,47.87
2023-04-30T17:38:56.324Z,47.80
2023-04-30T17:40:58.031Z,47.70
2023-04-30T17:43:01.390Z,48.48
2023-04-30T17:45:03.054Z,48.85
2023-04-30T17:47:05.748Z,49.26
2023-04-30T17:49:07.697Z,49.30
2023-04-30T17:51:09.460Z,49.41
2023-04-30T17:53:11.142Z,49.41
2023-04-30T17:55:13.746Z,49.78
2023-04-30T17:57:15.595Z,50.01
2023-04-30T17:59:17.358Z,50.16
2023-04-30T18:01:19.465Z,50.03
2023-04-30T18:03:21.191Z,50.19
2023-04-30T18:05:22.846Z,50.21
2023-04-30T18:07:24.728Z,50.05
2023-04-30T18:09:26.354Z,50.05
2023-04-30T18:11:28.282Z,50.42
2023-04-30T18:13:30.439Z,50.60
2023-04-30T18:15:32.189Z,50.35
2023-04-30T18:17:36.494Z,50.28
2023-04-30T18:19:44.014Z,50.28
2023-04-30T18:21:45.697Z,50.38
2023-04-30T18:23:48.105Z,50.41
2023-04-30T18:25:49.835Z,51.21
2023-04-30T18:27:51.424Z,51.41
2023-04-30T18:29:52.979Z,50.77
2023-04-30T18:31:54.628Z,50.48
2023-04-30T18:33:56.554Z,50.36
2023-04-30T18:36:01.519Z,50.31
2023-04-30T18:38:05.270Z,50.35
2023-04-30T18:40:07.519Z,50.36
2023-04-30T18:42:09.620Z,50.26
2023-04-30T18:44:11.740Z,50.31
2023-04-30T18:46:13.762Z,50.51
2023-04-30T18:48:17.219Z,50.63
2023-04-30T18:50:19.622Z,50.66
2023-04-30T18:52:21.257Z,51.09
2023-04-30T18:54:22.941Z,51.25
2023-04-30T18:56:24.894Z,51.19
2023-04-30T18:58:26.589Z,51.18
2023-04-30T19:00:28.674Z,51.14
2023-04-30T19:02:30.357Z,51.08
2023-04-30T19:04:32.044Z,51.01
2023-04-30T19:06:34.575Z,50.90
2023-04-30T19:08:36.235Z,50.83
2023-04-30T19:10:38.073Z,51.00
2023-04-30T19:12:39.805Z,50.91
2023-04-30T19:14:41.796Z,50.81
2023-04-30T19:16:44.620Z,50.72
2023-04-30T19:18:46.353Z,50.57
2023-04-30T19:20:57.909Z,50.82
2023-04-30T19:22:59.569Z,50.82
2023-04-30T19:25:01.161Z,50.93
2023-04-30T19:27:04.374Z,50.91
2023-04-30T19:29:05.949Z,50.86
2023-04-30T19:31:07.670Z,50.74
2023-04-30T19:33:09.402Z,51.03
2023-04-30T19:35:11.073Z,51.09
2023-04-30T19:37:12.968Z,51.15
2023-04-30T19:39:16.090Z,51.21
2023-04-30T19:41:17.776Z,51.21
2023-04-30T19:43:20.529Z,51.05
2023-04-30T19:45:22.335Z,50.79
2023-04-30T19:47:24.175Z,50.39
2023-04-30T19:49:26.607Z,50.24
2023-04-30T19:51:28.338Z,49.90
2023-04-30T19:53:30.370Z,50.30
2023-04-30T19:55:31.996Z,50.26
2023-04-30T19:57:35.939Z,50.00
2023-04-30T19:59:37.676Z,50.25
2023-04-30T20:01:40.103Z,50.51
2023-04-30T20:03:42.347Z,50.46
2023-04-30T20:05:44.711Z,50.32
2023-04-30T20:07:46.336Z,50.43
2023-04-30T20:09:47.936Z,50.51
2023-04-30T20:11:51.297Z,50.49
2023-04-30T20:13:55.098Z,50.65
2023-04-30T20:15:56.777Z,50.42
2023-04-30T20:17:58.713Z,50.59
2023-04-30T20:20:00.340Z,51.16
2023-04-30T20:22:02.987Z,51.08
2023-04-30T20:24:05.412Z,51.09
2023-04-30T20:26:08.104Z,51.25
2023-04-30T20:28:09.803Z,51.00
2023-04-30T20:30:13.314Z,51.26
2023-04-30T20:32:14.941Z,51.23
2023-04-30T20:34:16.758Z,51.21
2023-04-30T20:36:19.558Z,51.23
2023-04-30T20:38:22.190Z,51.41
2023-04-30T20:40:24.239Z,51.52
2023-04-30T20:42:29.078Z,51.03
2023-04-30T20:44:30.739Z,51.34
2023-04-30T20:46:32.782Z,51.39
2023-04-30T20:48:35.021Z,52.03
2023-04-30T20:50:37.408Z,52.42
2023-04-30T20:52:39.020Z,52.16
2023-04-30T20:54:41.313Z,52.42
2023-04-30T20:56:45.088Z,52.43
2023-04-30T20:58:46.743Z,52.50
2023-04-30T21:00:50.080Z,52.37
2023-04-30T21:02:54.017Z,52.32
2023-04-30T21:04:55.965Z,52.52
2023-04-30T21:06:57.521Z,52.64
2023-04-30T21:08:59.228Z,52.53
2023-04-30T21:11:00.823Z,52.72
2023-04-30T21:13:05.271Z,52.69
2023-04-30T21:15:08.676Z,52.83
2023-04-30T21:17:10.645Z,52.91
2023-04-30T21:19:12.611Z,52.79
2023-04-30T21:21:14.365Z,53.03
2023-04-30T21:23:15.950Z,53.04
2023-04-30T21:25:17.774Z,53.00
2023-04-30T21:27:20.208Z,53.11
2023-04-30T21:29:22.270Z,53.18
2023-04-30T21:31:24.031Z,53.44
2023-04-30T21:33:25.638Z,53.25
2023-04-30T21:35:32.898Z,53.35
2023-04-30T21:37:34.653Z,53.39
2023-04-30T21:39:36.258Z,53.51
2023-04-30T21:41:37.934Z,52.86
2023-04-30T21:43:41.437Z,52.95
2023-04-30T21:45:43.581Z,52.89
2023-04-30T21:47:47.491Z,53.00
2023-04-30T21:49:49.074Z,52.97
2023-04-30T21:51:50.611Z,53.28
2023-04-30T21:53:52.270Z,53.01
2023-04-30T21:55:53.909Z,52.79
2023-04-30T21:57:55.503Z,53.01
2023-04-30T21:59:59.351Z,52.92
2023-04-30T22:02:07.351Z,52.78
2023-04-30T22:04:16.214Z,52.89
2023-04-30T22:06:17.897Z,52.88
2023-04-30T22:08:19.651Z,52.86
2023-04-30T22:10:21.200Z,53.09
2023-04-30T22:12:25.111Z,52.92
2023-04-30T22:14:27.009Z,53.23
2023-04-30T22:16:29.273Z,53.17
2023-04-30T22:18:31.076Z,53.60
2023-04-30T22:20:32.691Z,53.43
2023-04-30T22:22:34.268Z,53.55
2023-04-30T22:24:35.871Z,53.55
2023-04-30T22:26:37.527Z,53.57
2023-04-30T22:28:39.162Z,53.91
2023-04-30T22:30:40.849Z,53.93
2023-04-30T22:32:42.411Z,54.30
2023-04-30T22:34:44.116Z,54.16
2023-04-30T22:36:46.122Z,53.96
2023-04-30T22:38:47.731Z,53.85
2023-04-30T22:40:49.289Z,54.17
2023-04-30T22:42:51.032Z,54.39
2023-04-30T22:44:52.755Z,54.72
2023-04-30T22:46:58.048Z,54.48
2023-04-30T22:49:00.751Z,54.31
2023-04-30T22:51:03.390Z,54.64
2023-04-30T22:53:05.210Z,54.47
2023-04-30T22:55:07.572Z,54.56
2023-04-30T22:57:10.724Z,54.67
2023-04-30T22:59:12.362Z,55.02
2023-04-30T23:01:14.012Z,55.41
2023-04-30T23:03:15.767Z,55.07
2023-04-30T23:05:17.410Z,55.10
2023-04-30T23:07:19.077Z,55.42
2023-04-30T23:09:20.678Z,55.66
2023-04-30T23:11:23.773Z,55.47
2023-04-30T23:13:25.445Z,55.61
2023-04-30T23:15:27.181Z,55.61
2023-04-30T23:17:28.849Z,55.56
2023-04-30T23:19:30.500Z,55.53
2023-04-30T23:21:33.692Z,55.31
2023-04-30T23:23:35.365Z,55.45
2023-04-30T23:25:37.016Z,55.42
2023-04-30T23:27:38.606Z,55.89
2023-04-30T23:29:40.232Z,56.12
2023-04-30T23:31:41.883Z,56.44
2023-04-30T23:33:43.991Z,56.28
2023-04-30T23:35:46.020Z,56.51
2023-04-30T23:37:47.676Z,57.01
2023-04-30T23:39:49.225Z,57.11
2023-04-30T23:41:52.264Z,57.43
2023-04-30T23:43:54.264Z,57.68
2023-04-30T23:45:57.303Z,57.62
2023-04-30T23:47:58.897Z,57.28
2023-04-30T23:50:00.599Z,57.46
2023-04-30T23:52:02.225Z,57.28
2023-04-30T23:54:05.341Z,57.33
2023-04-30T23:56:08.604Z,57.62
2023-04-30T23:58:10.321Z,57.91
